Time;durP1;ratioP1;P1;durP2;ratioP2;P2;SDS_P1;SDS_P2;PMS_P1;PMS_P2;Temp;Humidity;BMP_temperature;BMP_pressure;BME280_temperature;BME280_humidity;BME280_pressure;Samples;Min_cycle;Max_cycle;Signal;HPM_P1;HPM_P2
2021/05/06 00:31:24;;;;;;;3.28;1.17;;;;;;;22.32;45.63;97927.50;4995904;28;20205;-63
2021/05/06 00:33:50;;;;;;;2.45;1.00;;;;;;;22.34;45.64;97930.00;5056994;28;20199;-60
2021/05/06 00:36:17;;;;;;;2.75;1.13;;;;;;;22.32;46.49;97924.03;5045453;28;20649;-65
2021/05/06 00:38:46;;;;;;;1.35;0.70;;;;;;;22.34;46.32;97927.34;5041853;28;20259;-63
2021/05/06 00:41:27;;;;;;;2.83;0.90;;;;;;;22.35;45.56;97919.19;5052988;28;20846;-62
2021/05/06 00:55:24;;;;;;;2.92;0.98;;;;;;;22.34;45.90;97903.38;5055044;28;20351;-64
2021/05/06 00:58:03;;;;;;;2.65;0.93;;;;;;;22.37;45.77;97899.56;5051659;28;20229;-62
2021/05/06 01:00:50;;;;;;;2.20;0.90;;;;;;;22.39;46.51;97903.69;5045330;28;20231;-64
2021/05/06 01:03:25;;;;;;;1.40;0.70;;;;;;;22.37;45.73;97903.03;5055050;28;20224;-63
2021/05/06 01:05:53;;;;;;;2.05;1.00;;;;;;;22.39;46.05;97903.69;5045654;28;20206;-64
2021/05/06 01:08:23;;;;;;;3.63;1.08;;;;;;;22.39;46.68;97906.34;5052390;28;20662;-61
2021/05/06 01:11:00;;;;;;;3.38;0.98;;;;;;;22.38;46.21;97904.69;5049018;28;20208;-61
2021/05/06 01:13:28;;;;;;;4.25;1.00;;;;;;;22.37;45.67;97900.38;5045748;28;20260;-63
2021/05/06 01:15:55;;;;;;;2.70;0.98;;;;;;;22.36;45.89;97893.38;5048139;28;21531;-64
2021/05/06 01:18:21;;;;;;;2.35;0.90;;;;;;;22.36;46.45;97890.72;5051611;28;20600;-63
2021/05/06 01:20:51;;;;;;;2.15;1.17;;;;;;;22.38;45.95;97895.88;5044032;28;20211;-59
2021/05/06 01:23:17;;;;;;;3.88;0.88;;;;;;;22.37;45.85;97894.22;5052011;28;20228;-63
2021/05/06 01:25:51;;;;;;;1.60;0.70;;;;;;;22.32;45.91;97898.22;5048875;28;20213;-63
2021/05/06 01:28:20;;;;;;;2.50;0.80;;;;;;;22.37;46.53;97897.72;5051747;28;20345;-63
2021/05/06 01:30:49;;;;;;;1.67;0.70;;;;;;;22.37;45.79;97896.88;5051797;28;20198;-65
2021/05/06 01:33:20;;;;;;;1.42;0.60;;;;;;;22.36;46.32;97896.03;5047556;28;20207;-63
2021/05/06 01:35:51;;;;;;;1.65;0.80;;;;;;;22.35;46.69;97894.41;5049511;28;20231;-60
2021/05/06 01:41:21;;;;;;;2.53;0.88;;;;;;;22.35;46.01;97897.06;5042780;28;20215;-64
2021/05/06 01:43:55;;;;;;;2.72;0.80;;;;;;;22.35;45.92;97899.72;5046053;28;20199;-64
2021/05/06 01:57:37;;;;;;;1.23;0.60;;;;;;;22.32;46.27;97895.56;5047626;28;20717;-62
2021/05/06 02:00:09;;;;;;;3.00;1.05;;;;;;;22.31;46.56;97890.41;5044859;28;20380;-63
2021/05/06 02:02:35;;;;;;;2.60;0.57;;;;;;;22.30;46.12;97894.06;5053621;28;20218;-62
2021/05/06 02:05:01;;;;;;;2.85;0.80;;;;;;;22.32;46.83;97886.75;5049357;28;20227;-64
2021/05/06 02:07:27;;;;;;;1.23;0.68;;;;;;;22.32;46.48;97881.41;5048163;28;20606;-65
2021/05/06 02:09:54;;;;;;;1.40;0.70;;;;;;;22.29;46.15;97887.91;5047154;28;20236;-64
2021/05/06 02:12:20;;;;;;;1.95;0.70;;;;;;;22.30;46.72;97883.41;5053460;28;20240;-64
2021/05/06 02:14:51;;;;;;;1.83;0.90;;;;;;;22.31;46.07;97879.75;5048969;28;20349;-65
2021/05/06 02:17:17;;;;;;;2.38;0.47;;;;;;;22.31;45.76;97874.44;5044246;28;20223;-64
2021/05/06 02:19:47;;;;;;;1.95;0.70;;;;;;;22.30;46.71;97872.75;5047921;28;20222;-66
2021/05/06 02:22:13;;;;;;;1.23;0.52;;;;;;;22.31;46.04;97864.59;5045558;28;20577;-65
2021/05/06 02:24:39;;;;;;;1.20;0.70;;;;;;;22.30;46.66;97867.44;5047443;28;20265;-66
2021/05/06 02:27:06;;;;;;;2.20;0.57;;;;;;;22.29;46.69;97863.13;5044782;28;20729;-66
2021/05/06 02:29:32;;;;;;;3.47;0.70;;;;;;;22.31;46.38;97855.78;5051954;28;20195;-60
2021/05/06 02:31:58;;;;;;;1.48;0.73;;;;;;;22.31;46.47;97853.94;5050074;28;20217;-65
2021/05/06 02:34:24;;;;;;;3.88;0.80;;;;;;;22.30;46.86;97851.44;5053174;28;20294;-63
2021/05/06 02:36:50;;;;;;;0.98;0.65;;;;;;;22.28;46.64;97856.97;5051118;28;20242;-64
2021/05/06 02:39:16;;;;;;;1.58;0.63;;;;;;;22.26;46.02;97856.25;5055036;28;20246;-60
2021/05/06 02:41:43;;;;;;;2.13;0.60;;;;;;;22.25;45.95;97854.63;5052659;28;20261;-60
2021/05/06 02:44:09;;;;;;;1.88;0.65;;;;;;;22.23;47.24;97855.78;5049713;28;20215;-61
2021/05/06 02:46:36;;;;;;;1.60;0.70;;;;;;;22.24;45.96;97860.94;5050874;28;20647;-64
2021/05/06 02:49:02;;;;;;;1.17;0.85;;;;;;;22.25;46.26;97859.09;5052235;28;20195;-64
2021/05/06 02:51:31;;;;;;;1.92;1.00;;;;;;;22.25;46.24;97865.28;5057527;28;20203;-64
2021/05/06 02:53:57;;;;;;;2.38;0.77;;;;;;;22.24;46.37;97852.94;5045298;28;20211;-58
2021/05/06 02:56:29;;;;;;;1.27;0.70;;;;;;;22.22;46.67;97860.28;5054773;28;20292;-63
2021/05/06 02:59:08;;;;;;;1.30;0.70;;;;;;;22.23;46.87;97856.59;5055101;28;20712;-59
2021/05/06 03:04:19;;;;;;;1.17;0.63;;;;;;;22.23;46.05;97861.13;5059955;28;20873;-64
2021/05/06 03:06:49;;;;;;;1.50;0.80;;;;;;;22.23;46.91;97855.78;5059091;28;20329;-64
2021/05/06 03:09:28;;;;;;;2.00;0.80;;;;;;;22.23;46.10;97866.44;5059897;28;20225;-63
2021/05/06 03:12:03;;;;;;;1.55;0.70;;;;;;;22.23;46.29;97875.25;5052025;28;20214;-64
2021/05/06 03:14:43;;;;;;;2.45;0.73;;;;;;;22.24;47.12;97868.09;5056506;28;20612;-65
2021/05/06 03:22:46;;;;;;;2.05;0.73;;;;;;;22.23;45.77;97866.44;5012743;28;20291;-56
2021/05/06 03:25:15;;;;;;;1.27;0.70;;;;;;;22.23;46.42;97877.09;5049545;28;20345;-65
2021/05/06 03:27:47;;;;;;;3.15;0.57;;;;;;;22.22;46.59;97864.78;5055955;28;20588;-64
2021/05/06 03:30:32;;;;;;;1.23;0.65;;;;;;;22.21;47.17;97842.66;5053042;28;20792;-60
2021/05/06 03:34:40;;;;;;;1.23;0.55;;;;;;;22.25;46.08;97827.16;5047867;28;20272;-59
2021/05/06 03:41:35;;;;;;;1.15;0.50;;;;;;;22.25;46.83;97819.16;5046756;28;20210;-65
2021/05/06 03:41:50;;;;;;;4.00;0.50;;;;;;;22.32;46.83;97822.84;5053186;28;20206;-66
2021/05/06 03:44:35;;;;;;;4.30;0.65;;;;;;;22.34;46.86;97820.81;5057975;28;20240;-64
2021/05/06 03:50:33;;;;;;;1.00;0.38;;;;;;;22.39;46.16;97821.13;5050173;28;20188;-62
2021/05/06 04:17:47;;;;;;;1.30;0.60;;;;;;;22.50;46.59;97780.78;5053651;28;20214;-63
2021/05/06 04:26:00;;;;;;;1.10;0.52;;;;;;;22.54;46.66;97779.41;5044624;28;20206;-65
2021/05/06 04:35:26;;;;;;;1.60;0.60;;;;;;;22.58;46.54;97779.88;5043280;28;20358;-63
2021/05/06 04:36:55;;;;;;;1.55;0.30;;;;;;;22.59;45.96;97772.75;5050536;28;20249;-64
2021/05/06 04:50:28;;;;;;;1.02;0.40;;;;;;;22.65;46.54;97759.53;5020087;28;20271;-63
2021/05/06 04:55:41;;;;;;;1.38;0.60;;;;;;;22.66;45.50;97766.50;5044125;28;20595;-63
2021/05/06 05:03:39;;;;;;;1.15;0.50;;;;;;;22.71;46.21;97776.63;5050233;28;20314;-63
2021/05/06 05:06:07;;;;;;;1.50;0.60;;;;;;;22.70;45.11;97772.31;5051820;28;20612;-66
2021/05/06 05:08:37;;;;;;;1.27;0.32;;;;;;;22.71;45.42;97771.31;5043818;28;20680;-59
2021/05/06 05:24:55;;;;;;;0.80;0.52;;;;;;;22.76;45.50;97755.59;5025561;28;20238;-63
2021/05/06 05:27:23;;;;;;;1.55;0.60;;;;;;;22.73;44.00;97756.81;5044873;28;20226;-62
2021/05/06 05:29:49;;;;;;;24.85;1.50;;;;;;;22.73;45.21;97756.81;5054033;28;20260;-61
2021/05/06 05:32:15;;;;;;;24.55;3.15;;;;;;;22.73;46.31;97745.31;5048597;28;20231;-61
2021/05/06 05:34:43;;;;;;;23.08;2.90;;;;;;;22.74;48.24;97752.31;5048850;28;20282;-64
2021/05/06 05:37:16;;;;;;;24.10;2.45;;;;;;;22.75;47.09;97735.31;5050994;28;20231;-62
2021/05/06 05:39:54;;;;;;;32.95;2.30;;;;;;;22.74;47.46;97736.31;5049521;28;20325;-63
2021/05/06 05:42:27;;;;;;;18.70;2.53;;;;;;;22.75;47.18;97737.13;5051306;28;20226;-62
2021/05/06 05:56:03;;;;;;;12.88;1.77;;;;;;;22.76;47.27;97733.47;4997964;28;20254;-68
2021/05/06 05:58:29;;;;;;;8.05;1.85;;;;;;;22.75;47.25;97739.78;5030282;28;20741;-67
2021/05/06 06:00:56;;;;;;;17.95;1.77;;;;;;;22.75;47.40;97740.66;5044675;28;20272;-64
2021/05/06 06:03:22;;;;;;;12.43;1.60;;;;;;;22.76;46.38;97742.28;5046355;28;20213;-65
2021/05/06 06:05:52;;;;;;;11.57;1.65;;;;;;;22.74;47.13;97744.31;5047736;28;20211;-61
2021/05/06 06:08:19;;;;;;;7.15;1.25;;;;;;;22.69;47.29;97738.69;5041904;28;20690;-63
2021/05/06 06:10:45;;;;;;;8.32;1.10;;;;;;;22.68;47.24;97740.53;5043407;28;20225;-63
2021/05/06 06:13:12;;;;;;;5.22;1.52;;;;;;;22.80;46.72;97740.09;5046003;28;20269;-63
2021/05/06 06:15:49;;;;;;;7.35;1.20;;;;;;;22.79;48.14;97744.59;5032430;28;20227;-64
2021/05/06 06:18:20;;;;;;;13.27;2.15;;;;;;;22.77;49.09;97746.63;5033556;28;20589;-64
2021/05/06 06:20:54;;;;;;;28.15;2.05;;;;;;;22.80;48.46;97743.59;5038088;28;20853;-64
2021/05/06 06:23:20;;;;;;;12.15;1.65;;;;;;;22.87;49.03;97754.38;5033914;28;20264;-64
2021/05/06 06:25:46;;;;;;;10.77;1.48;;;;;;;22.90;48.74;97746.03;5032435;28;20259;-60
2021/05/06 06:28:13;;;;;;;12.95;1.67;;;;;;;22.91;48.72;97747.66;5036528;28;20609;-62
2021/05/06 06:30:41;;;;;;;7.28;1.55;;;;;;;22.90;48.02;97741.50;5035010;28;20219;-63
2021/05/06 06:33:07;;;;;;;13.35;2.03;;;;;;;22.90;47.57;97740.69;5043198;28;20246;-62
2021/05/06 06:35:35;;;;;;;4.45;1.40;;;;;;;22.88;47.43;97732.88;5037265;28;20668;-64
2021/05/06 06:38:01;;;;;;;9.25;1.25;;;;;;;22.87;47.44;97725.88;5039477;28;20274;-63
2021/05/06 06:40:27;;;;;;;5.40;1.23;;;;;;;22.87;47.83;97717.06;5039952;28;20227;-64
2021/05/06 06:42:53;;;;;;;8.55;1.35;;;;;;;22.89;47.20;97718.50;5029726;28;20231;-63
2021/05/06 06:45:21;;;;;;;5.38;1.15;;;;;;;22.92;46.69;97715.50;5030724;28;20250;-62
2021/05/06 06:47:51;;;;;;;10.80;1.30;;;;;;;22.94;46.32;97709.97;5035619;28;20634;-63
2021/05/06 06:50:17;;;;;;;3.85;1.23;;;;;;;22.94;46.76;97706.50;5027827;28;20326;-62
2021/05/06 06:52:45;;;;;;;4.72;1.30;;;;;;;22.94;46.72;97712.66;5043646;28;20302;-63
2021/05/06 06:55:11;;;;;;;3.80;1.17;;;;;;;22.95;46.85;97713.47;5040485;28;20235;-63
2021/05/06 06:57:37;;;;;;;8.68;1.23;;;;;;;22.97;46.64;97714.97;5038021;28;20228;-62
2021/05/06 07:00:05;;;;;;;6.13;1.48;;;;;;;22.97;46.93;97711.47;5045013;28;20731;-62
2021/05/06 07:02:31;;;;;;;5.43;1.25;;;;;;;23.02;46.46;97719.75;5035953;28;20204;-63
2021/05/06 07:04:58;;;;;;;6.65;1.10;;;;;;;23.04;46.24;97720.38;5034024;28;20575;-63
2021/05/06 07:07:24;;;;;;;7.45;1.42;;;;;;;22.91;45.12;97721.00;5037286;28;20230;-64
2021/05/06 07:09:51;;;;;;;5.40;1.52;;;;;;;22.98;44.70;97710.44;5042156;28;20239;-64
2021/05/06 07:12:17;;;;;;;11.73;1.55;;;;;;;22.92;45.49;97704.84;5038563;28;20294;-62
2021/05/06 07:14:43;;;;;;;7.28;1.20;;;;;;;22.97;44.80;97703.47;5042175;28;20256;-62
2021/05/06 07:17:10;;;;;;;1.73;0.90;;;;;;;22.97;45.77;97703.47;5043951;28;20226;-64
2021/05/06 07:19:36;;;;;;;8.60;1.25;;;;;;;22.96;45.76;97705.28;5034260;28;20285;-61
2021/05/06 07:22:02;;;;;;;6.32;1.10;;;;;;;22.95;45.88;97710.81;5036004;28;20787;-62
2021/05/06 07:24:29;;;;;;;9.82;1.25;;;;;;;22.96;45.87;97707.97;5035653;28;20208;-60
2021/05/06 07:26:56;;;;;;;5.20;0.90;;;;;;;22.95;46.30;97705.47;5038521;28;20227;-60
2021/05/06 07:29:22;;;;;;;5.88;1.20;;;;;;;22.94;46.40;97706.50;5039708;28;20200;-60
2021/05/06 07:31:50;;;;;;;6.05;1.50;;;;;;;22.96;45.90;97712.47;5041478;28;20203;-59
2021/05/06 07:34:16;;;;;;;7.95;1.30;;;;;;;22.96;46.60;97712.47;5048012;28;20204;-63
2021/05/06 07:36:42;;;;;;;6.30;1.60;;;;;;;22.98;46.78;97719.28;5043401;28;20273;-63
2021/05/06 07:39:09;;;;;;;6.30;1.17;;;;;;;22.99;46.48;97706.78;5031543;28;20228;-62
2021/05/06 07:41:35;;;;;;;5.80;1.23;;;;;;;23.01;45.72;97710.91;5034389;28;20208;-58
2021/05/06 07:44:03;;;;;;;4.78;1.25;;;;;;;23.04;45.52;97717.72;5038487;28;20695;-60
2021/05/06 07:46:29;;;;;;;5.20;1.33;;;;;;;23.04;46.54;97712.41;5042126;28;20261;-59
2021/05/06 07:48:56;;;;;;;4.90;1.27;;;;;;;23.08;45.49;97711.03;5039774;28;20317;-61
2021/05/06 07:51:22;;;;;;;6.70;1.00;;;;;;;23.09;45.37;97702.03;5033295;28;20279;-60
2021/05/06 07:53:50;;;;;;;5.65;1.15;;;;;;;23.09;46.18;97702.84;5039612;28;20660;-65
2021/05/06 07:56:17;;;;;;;4.10;1.00;;;;;;;23.10;45.41;97698.38;5038531;28;20220;-61
2021/05/06 07:58:43;;;;;;;6.68;1.35;;;;;;;23.14;45.36;97696.97;5033237;28;20818;-62
2021/05/06 08:01:11;;;;;;;6.20;1.20;;;;;;;23.16;45.56;97702.97;5041346;28;20553;-62
2021/05/06 08:03:38;;;;;;;2.33;0.70;;;;;;;23.15;45.26;97705.81;5040581;28;20239;-62
2021/05/06 08:06:04;;;;;;;5.00;1.00;;;;;;;23.13;45.14;97703.31;5046424;28;20754;-64
2021/05/06 08:08:31;;;;;;;6.65;1.23;;;;;;;23.12;45.53;97701.69;5035289;28;20672;-64
2021/05/06 08:10:58;;;;;;;3.58;1.10;;;;;;;23.13;45.67;97703.31;5033676;28;20288;-64
2021/05/06 08:13:26;;;;;;;4.70;1.20;;;;;;;23.13;45.42;97700.66;5039891;28;20246;-61
2021/05/06 08:15:53;;;;;;;2.78;0.77;;;;;;;23.17;45.41;97706.47;5044565;28;20294;-60
2021/05/06 08:18:20;;;;;;;2.67;1.08;;;;;;;23.14;45.40;97704.97;5039967;28;20285;-65
2021/05/06 08:20:46;;;;;;;4.93;1.20;;;;;;;23.15;45.82;97698.66;5037156;28;20302;-63
2021/05/06 08:23:13;;;;;;;8.40;1.20;;;;;;;23.15;46.18;97690.66;5038785;28;20207;-64
2021/05/06 08:25:39;;;;;;;3.08;0.90;;;;;;;23.15;46.13;97690.66;5037416;28;20668;-66
2021/05/06 08:28:07;;;;;;;3.88;0.95;;;;;;;23.16;45.52;97686.97;5043009;28;20235;-64
2021/05/06 08:30:34;;;;;;;4.00;0.98;;;;;;;23.18;45.27;97686.78;5046399;28;20269;-61
2021/05/06 08:33:00;;;;;;;4.00;0.68;;;;;;;23.16;46.36;97676.28;5045890;28;20288;-63
2021/05/06 08:35:27;;;;;;;2.63;1.30;;;;;;;23.16;45.71;97680.81;5046012;28;20592;-62
2021/05/06 08:37:54;;;;;;;4.70;1.10;;;;;;;23.16;46.96;97676.28;5052731;28;20238;-58
2021/05/06 08:40:20;;;;;;;2.13;0.88;;;;;;;23.19;46.15;97675.94;5047789;28;20450;-64
2021/05/06 08:42:49;;;;;;;4.43;1.15;;;;;;;23.16;45.64;97676.28;5035170;28;20208;-64
2021/05/06 08:45:16;;;;;;;3.80;0.90;;;;;;;23.17;45.99;97671.81;5043598;28;20219;-64
2021/05/06 08:47:44;;;;;;;2.47;1.20;;;;;;;23.15;45.42;97680.00;5046847;28;20254;-66
2021/05/06 08:50:11;;;;;;;3.42;0.80;;;;;;;23.16;46.38;97673.63;5033336;28;20764;-61
2021/05/06 08:52:40;;;;;;;3.85;0.80;;;;;;;23.17;46.61;97680.63;5033242;28;20284;-62
2021/05/06 08:55:08;;;;;;;5.18;1.00;;;;;;;23.23;47.02;97682.56;5035624;28;20231;-67
2021/05/06 08:57:34;;;;;;;5.93;1.08;;;;;;;23.27;46.09;97675.03;5032880;28;20230;-64
2021/05/06 09:00:01;;;;;;;8.50;1.13;;;;;;;23.25;45.36;97682.38;5036062;28;20319;-62
2021/05/06 09:02:27;;;;;;;3.00;1.20;;;;;;;23.20;45.46;97676.75;5040435;28;20196;-62
2021/05/06 09:04:53;;;;;;;2.33;0.95;;;;;;;23.19;45.41;97680.44;5042587;28;20199;-62
2021/05/06 09:07:21;;;;;;;3.20;1.02;;;;;;;23.19;45.75;97681.25;5042229;28;20299;-61
2021/05/06 09:09:50;;;;;;;4.13;1.15;;;;;;;23.18;46.01;97674.28;5027464;28;20215;-63
2021/05/06 09:12:33;;;;;;;5.82;1.40;;;;;;;23.17;45.87;97680.63;5028293;28;20285;-58
2021/05/06 09:15:12;;;;;;;8.30;1.25;;;;;;;23.15;46.34;97681.81;5042126;28;20296;-66
2021/05/06 09:17:38;;;;;;;4.15;1.17;;;;;;;23.18;45.43;97676.13;5043352;28;20284;-63
2021/05/06 09:20:13;;;;;;;3.33;1.05;;;;;;;23.17;45.16;97680.63;5033950;28;20229;-63
2021/05/06 09:22:42;;;;;;;4.72;0.88;;;;;;;23.18;46.22;97679.63;5035433;28;20208;-63
2021/05/06 09:25:30;;;;;;;2.97;1.10;;;;;;;23.15;46.15;97674.66;5040871;28;20711;-61
2021/05/06 09:28:14;;;;;;;2.78;0.90;;;;;;;23.12;46.27;97675.03;5041026;28;20300;-62
2021/05/06 09:30:52;;;;;;;3.35;1.10;;;;;;;23.13;45.52;97665.16;5043384;28;20496;-62
2021/05/06 09:33:19;;;;;;;5.05;0.90;;;;;;;23.10;45.71;97674.38;5040207;28;20211;-62
2021/05/06 09:35:48;;;;;;;4.95;0.98;;;;;;;23.11;46.47;97670.69;5032580;28;20203;-62
2021/05/06 09:38:33;;;;;;;2.88;1.25;;;;;;;23.08;45.97;97663.06;5036540;28;20222;-61
2021/05/06 09:41:02;;;;;;;7.43;1.15;;;;;;;23.11;46.44;97670.69;5041386;28;20276;-62
2021/05/06 09:43:31;;;;;;;5.45;1.30;;;;;;;23.12;45.58;97674.19;5038107;28;20290;-67
2021/05/06 09:45:58;;;;;;;3.53;0.95;;;;;;;23.12;45.96;97664.34;5034645;28;20300;-65
2021/05/06 09:48:24;;;;;;;3.17;0.98;;;;;;;23.16;46.06;97662.97;5026541;28;20235;-61
2021/05/06 09:50:53;;;;;;;6.05;1.00;;;;;;;23.17;45.61;97658.47;5039852;28;20286;-62
2021/05/06 09:53:21;;;;;;;2.33;1.02;;;;;;;23.18;46.66;97663.63;5036522;28;20309;-65
2021/05/06 09:55:49;;;;;;;2.45;0.75;;;;;;;23.23;46.23;97665.72;5036288;28;20290;-63
2021/05/06 09:58:19;;;;;;;4.18;0.70;;;;;;;23.20;45.83;97652.75;5035889;28;20231;-59
2021/05/06 10:00:47;;;;;;;3.72;0.90;;;;;;;23.24;45.81;97657.53;5038363;28;20227;-59
2021/05/06 10:03:15;;;;;;;2.13;0.90;;;;;;;23.25;46.45;97648.53;5036093;28;20199;-61
2021/05/06 10:05:43;;;;;;;3.67;1.10;;;;;;;23.26;46.58;97655.53;5034973;28;20205;-62
2021/05/06 10:08:10;;;;;;;2.17;1.08;;;;;;;23.23;45.90;97655.91;5040094;28;20234;-68
2021/05/06 10:10:36;;;;;;;2.00;0.90;;;;;;;23.24;45.64;97646.88;5036145;28;20300;-66
2021/05/06 10:13:04;;;;;;;6.78;1.15;;;;;;;23.25;46.47;97656.53;5039448;28;20198;-63
2021/05/06 10:15:32;;;;;;;2.58;0.98;;;;;;;23.24;45.54;97654.88;5037549;28;20211;-62
2021/05/06 10:17:58;;;;;;;2.70;0.98;;;;;;;23.23;46.33;97653.22;5043927;28;20311;-64
2021/05/06 10:20:26;;;;;;;3.58;1.00;;;;;;;23.27;46.17;97649.19;5036079;28;20223;-63
2021/05/06 10:22:53;;;;;;;2.38;0.80;;;;;;;23.26;45.64;97650.22;5034416;28;20528;-61
2021/05/06 10:25:22;;;;;;;1.77;0.80;;;;;;;23.26;45.57;97644.88;5040728;28;21040;-64
2021/05/06 10:27:49;;;;;;;3.63;1.00;;;;;;;23.14;44.24;97646.31;5036203;28;20223;-61
2021/05/06 10:30:16;;;;;;;6.38;1.35;;;;;;;23.02;42.91;97637.94;5039318;28;20252;-61
2021/05/06 10:32:44;;;;;;;7.38;1.60;;;;;;;22.87;43.79;97642.44;5040233;28;20200;-60
2021/05/06 10:35:13;;;;;;;5.38;1.42;;;;;;;22.94;43.19;97642.53;5037624;28;20245;-61
2021/05/06 10:37:41;;;;;;;10.15;1.70;;;;;;;22.87;43.06;97635.25;5043707;28;20537;-58
2021/05/06 10:40:30;;;;;;;7.80;1.52;;;;;;;22.90;43.05;97637.56;5044196;28;20594;-63
2021/05/06 10:42:58;;;;;;;8.15;1.95;;;;;;;22.90;43.17;97628.75;5036879;28;20205;-63
2021/05/06 10:45:34;;;;;;;8.18;1.50;;;;;;;22.85;43.68;97631.97;5040086;28;20282;-62
2021/05/06 10:48:03;;;;;;;4.68;0.95;;;;;;;22.84;42.72;97624.97;5033959;28;20226;-62
2021/05/06 10:50:35;;;;;;;5.18;1.25;;;;;;;22.82;43.36;97624.31;5035501;28;20211;-59
2021/05/06 10:53:03;;;;;;;7.53;1.27;;;;;;;22.77;43.84;97621.38;5034052;28;20269;-61
2021/05/06 10:55:48;;;;;;;10.10;1.50;;;;;;;22.76;43.24;97619.72;5036558;28;20282;-60
2021/05/06 10:58:39;;;;;;;7.25;1.25;;;;;;;22.73;43.17;97625.41;5037833;28;20322;-61
2021/05/06 11:01:21;;;;;;;2.30;1.10;;;;;;;22.72;44.15;97610.44;5036753;28;20215;-64
2021/05/06 11:04:10;;;;;;;13.70;2.03;;;;;;;22.72;43.28;97607.78;5039135;28;20254;-54
2021/05/06 11:06:45;;;;;;;6.30;1.27;;;;;;;22.68;43.35;97609.13;5031968;28;20336;-58
2021/05/06 11:09:57;;;;;;;14.30;1.40;;;;;;;22.79;43.92;97626.53;5035329;28;20299;-59
2021/05/06 11:12:28;;;;;;;8.65;1.70;;;;;;;22.60;42.73;97610.06;5041762;28;20613;-63
2021/05/06 11:15:29;;;;;;;29.70;2.35;;;;;;;22.71;43.25;97608.78;5046618;28;20279;-62
2021/05/06 11:17:57;;;;;;;8.57;1.08;;;;;;;22.80;43.79;97590.84;5051135;28;20228;-62
2021/05/06 11:20:46;;;;;;;11.88;1.05;;;;;;;22.87;43.60;97591.81;5050523;28;20257;-62
2021/05/06 11:23:25;;;;;;;5.43;1.40;;;;;;;22.90;44.28;97591.44;5054734;28;20204;-64
2021/05/06 11:26:00;;;;;;;11.27;1.55;;;;;;;22.96;45.16;97584.53;5039852;28;20200;-62
2021/05/06 11:28:43;;;;;;;5.25;1.10;;;;;;;23.01;46.68;97584.81;5037986;28;20258;-61
2021/05/06 11:31:09;;;;;;;2.55;0.90;;;;;;;23.00;44.91;97578.66;5045259;28;20297;-61
2021/05/06 11:33:36;;;;;;;8.20;1.20;;;;;;;23.02;45.25;97578.47;5039578;28;20231;-63
2021/05/06 11:36:06;;;;;;;5.38;0.80;;;;;;;23.05;45.83;97564.78;5037406;28;20211;-64
2021/05/06 11:38:46;;;;;;;2.58;0.80;;;;;;;23.05;44.92;97556.78;5037997;28;20223;-63
2021/05/06 11:41:14;;;;;;;4.43;0.90;;;;;;;23.06;44.67;97553.09;5043060;28;20243;-60
2021/05/06 11:43:42;;;;;;;6.18;1.27;;;;;;;23.08;45.61;97548.41;5034129;28;20204;-62
2021/05/06 11:46:10;;;;;;;2.35;0.80;;;;;;;23.09;45.69;97542.91;5037824;28;20325;-60
2021/05/06 11:48:36;;;;;;;4.57;1.00;;;;;;;23.12;45.61;97544.38;5033456;28;20232;-62
2021/05/06 11:51:04;;;;;;;1.88;0.68;;;;;;;23.06;45.61;97537.09;5036258;28;20664;-64
2021/05/06 11:53:30;;;;;;;2.08;0.77;;;;;;;23.11;45.32;97540.06;5046817;28;20727;-60
2021/05/06 11:55:58;;;;;;;1.90;1.02;;;;;;;23.10;45.06;97533.09;5038626;28;20212;-60
2021/05/06 11:58:28;;;;;;;4.30;0.93;;;;;;;23.12;46.01;97528.38;5042636;28;20647;-62
2021/05/06 12:00:55;;;;;;;2.75;0.93;;;;;;;23.11;45.63;97528.56;5044658;28;20212;-63
2021/05/06 12:03:34;;;;;;;1.73;0.85;;;;;;;23.11;45.69;97517.91;5040607;28;20287;-64
2021/05/06 12:06:01;;;;;;;7.32;1.35;;;;;;;23.13;45.13;97519.34;5031153;28;20652;-64
2021/05/06 12:08:31;;;;;;;16.52;1.05;;;;;;;23.11;46.21;97512.56;5038253;28;20352;-60
2021/05/06 12:10:59;;;;;;;23.42;1.48;;;;;;;23.08;46.02;97503.09;5033655;28;20274;-62
2021/05/06 12:13:30;;;;;;;4.72;1.17;;;;;;;23.07;46.68;97498.78;5038889;28;20200;-62
2021/05/06 12:16:13;;;;;;;7.63;1.05;;;;;;;23.07;46.60;97496.94;5040908;28;20218;-63
2021/05/06 12:18:40;;;;;;;4.22;0.80;;;;;;;23.04;46.25;97481.28;5045727;28;20314;-62
2021/05/06 12:21:06;;;;;;;4.15;0.98;;;;;;;23.04;45.89;97486.63;5046534;28;20696;-64
2021/05/06 12:23:34;;;;;;;2.75;0.85;;;;;;;23.03;45.52;97473.47;5044762;28;20231;-64
2021/05/06 12:26:01;;;;;;;4.70;0.90;;;;;;;23.00;46.50;97472.03;5044612;28;20303;-64
2021/05/06 12:28:28;;;;;;;3.92;0.95;;;;;;;23.02;46.40;97466.53;5033989;28;20354;-60
2021/05/06 12:31:00;;;;;;;5.63;0.82;;;;;;;23.01;46.05;97459.53;5038473;28;20210;-63
2021/05/06 12:33:31;;;;;;;1.60;0.77;;;;;;;23.03;45.86;97462.81;5040635;28;20207;-61
2021/05/06 12:35:57;;;;;;;7.78;0.90;;;;;;;23.03;45.88;97454.81;5036523;28;20204;-63
2021/05/06 12:38:23;;;;;;;3.20;1.10;;;;;;;23.01;46.27;97439.00;5041210;28;20331;-64
2021/05/06 12:40:53;;;;;;;3.83;0.77;;;;;;;23.03;45.55;97441.50;5039185;28;20227;-64
2021/05/06 12:43:23;;;;;;;5.28;0.88;;;;;;;23.02;46.05;97439.84;5041566;28;20237;-63
2021/05/06 12:45:59;;;;;;;1.08;0.70;;;;;;;23.01;45.52;97439.00;5035523;28;20666;-64
2021/05/06 12:48:42;;;;;;;3.90;0.82;;;;;;;23.02;45.29;97437.19;5031979;28;20223;-63
2021/05/06 12:51:10;;;;;;;3.85;0.70;;;;;;;23.00;45.82;97434.72;5044072;28;20211;-61
2021/05/06 12:53:37;;;;;;;2.20;0.90;;;;;;;23.01;46.43;97427.53;5041235;28;20282;-65
2021/05/06 12:56:05;;;;;;;2.17;0.60;;;;;;;23.01;46.18;97422.22;5038635;28;20357;-63
2021/05/06 12:58:35;;;;;;;3.58;1.08;;;;;;;23.01;45.88;97430.19;5040179;28;20236;-62
2021/05/06 13:01:13;;;;;;;3.33;0.82;;;;;;;22.99;46.05;97424.25;5044140;28;20234;-60
2021/05/06 13:03:43;;;;;;;4.03;0.70;;;;;;;22.98;46.55;97426.09;5036019;28;20200;-59
2021/05/06 13:06:11;;;;;;;3.45;0.77;;;;;;;22.98;45.99;97431.41;5042666;28;20715;-58
2021/05/06 13:08:39;;;;;;;3.88;0.88;;;;;;;22.98;46.50;97430.56;5029455;28;20565;-64
2021/05/06 13:11:08;;;;;;;4.05;1.00;;;;;;;22.97;45.50;97437.75;5043841;28;20275;-58
2021/05/06 13:13:42;;;;;;;1.23;0.60;;;;;;;22.97;45.83;97432.41;5045953;28;20286;-63
2021/05/06 13:16:10;;;;;;;1.77;0.70;;;;;;;22.95;46.53;97430.94;5044981;28;20693;-61
2021/05/06 13:18:37;;;;;;;1.13;0.50;;;;;;;22.97;46.14;97428.94;5043983;28;20284;-63
2021/05/06 13:21:04;;;;;;;1.55;0.60;;;;;;;22.96;45.54;97430.75;5044345;28;20305;-64
2021/05/06 13:23:32;;;;;;;2.20;0.60;;;;;;;22.96;45.49;97424.63;5046003;28;20214;-63
2021/05/06 13:26:00;;;;;;;2.95;0.70;;;;;;;22.92;45.40;97419.66;5042641;28;20315;-59
2021/05/06 13:28:45;;;;;;;2.63;0.57;;;;;;;22.94;46.40;97411.47;5045203;28;20219;-62
2021/05/06 13:31:16;;;;;;;2.97;0.77;;;;;;;22.99;45.77;97410.91;5037417;28;20235;-62
2021/05/06 13:33:43;;;;;;;4.32;0.70;;;;;;;22.93;45.33;97409.81;5040600;28;20602;-64
2021/05/06 13:36:11;;;;;;;2.00;0.50;;;;;;;22.92;46.55;97406.31;5032309;28;20244;-63
2021/05/06 13:39:02;;;;;;;1.98;0.68;;;;;;;22.68;43.37;97390.69;5044537;28;20246;-65
2021/05/06 13:41:31;;;;;;;3.45;0.70;;;;;;;22.01;44.32;97381.81;5032359;28;20223;-62
2021/05/06 13:43:59;;;;;;;1.42;0.90;;;;;;;21.62;42.80;97369.59;5040037;28;20281;-61
2021/05/06 13:46:27;;;;;;;3.25;0.90;;;;;;;21.40;43.63;97371.22;5037025;28;20640;-59
2021/05/06 13:48:54;;;;;;;1.30;0.80;;;;;;;21.37;43.84;97361.78;5036244;28;20204;-65
2021/05/06 13:51:21;;;;;;;2.70;1.00;;;;;;;21.27;44.41;97363.88;5040654;28;20811;-63
2021/05/06 13:53:49;;;;;;;3.33;0.70;;;;;;;21.18;44.70;97363.13;5033595;28;20238;-62
2021/05/06 13:56:16;;;;;;;1.75;0.82;;;;;;;20.88;44.01;97352.38;5028919;28;20219;-67
2021/05/06 13:58:43;;;;;;;3.97;1.00;;;;;;;20.94;43.75;97345.53;5031031;28;20270;-61
2021/05/06 14:01:12;;;;;;;6.32;1.10;;;;;;;21.04;43.52;97346.09;5043354;28;20673;-64
2021/05/06 14:03:39;;;;;;;1.83;0.70;;;;;;;21.70;44.19;97336.75;5048922;28;20204;-62
2021/05/06 14:06:06;;;;;;;2.58;0.70;;;;;;;22.07;44.22;97324.38;5033611;28;20290;-62
2021/05/06 14:08:33;;;;;;;6.97;1.10;;;;;;;22.27;44.38;97329.94;5043235;28;20702;-63
2021/05/06 14:10:59;;;;;;;3.67;0.70;;;;;;;22.40;44.53;97311.50;5051985;28;20199;-62
2021/05/06 14:13:27;;;;;;;3.15;0.80;;;;;;;22.51;44.20;97310.16;5041488;28;20203;-64
2021/05/06 14:15:53;;;;;;;1.25;0.55;;;;;;;22.61;44.54;97307.22;5030898;28;20680;-60